createdAt,value
2022-08-05T00:01:36.124Z,23.26
2022-08-05T00:04:17.084Z,23.20
2022-08-05T00:06:47.217Z,23.16
2022-08-05T00:09:21.254Z,23.31
2022-08-05T00:11:56.029Z,23.40
2022-08-05T00:14:30.668Z,23.34
2022-08-05T00:17:01.948Z,23.29
2022-08-05T00:19:33.605Z,23.31
2022-08-05T00:22:12.173Z,23.41
2022-08-05T00:24:42.348Z,23.40
2022-08-05T00:27:16.489Z,23.35
2022-08-05T00:29:45.169Z,23.32
2022-08-05T00:32:15.288Z,23.31
2022-08-05T00:35:04.726Z,23.15
2022-08-05T00:37:51.358Z,23.07
2022-08-05T00:40:29.047Z,23.02
2022-08-05T00:42:59.454Z,23.03
2022-08-05T00:45:38.446Z,23.05
2022-08-05T00:48:10.062Z,23.02
2022-08-05T00:50:39.238Z,23.07
2022-08-05T00:53:44.739Z,23.02
2022-08-05T00:55:59.222Z,23.03
2022-08-05T00:58:28.318Z,23.00
2022-08-05T01:00:56.755Z,22.98
2022-08-05T01:03:30.843Z,22.99
2022-08-05T01:06:02.607Z,22.93
2022-08-05T01:08:42.701Z,22.92
2022-08-05T01:11:33.697Z,22.85
2022-08-05T01:14:15.452Z,22.77
2022-08-05T01:16:50.316Z,22.66
2022-08-05T01:20:02.026Z,22.57
2022-08-05T01:22:47.023Z,22.55
2022-08-05T01:25:53.303Z,22.57
2022-08-05T01:28:32.953Z,22.54
2022-08-05T01:31:06.129Z,22.51
2022-08-05T01:33:49.253Z,22.52
2022-08-05T01:36:28.397Z,22.47
2022-08-05T01:39:01.060Z,22.37
2022-08-05T01:41:33.342Z,22.26
2022-08-05T01:44:04.080Z,22.17
2022-08-05T01:46:42.208Z,22.15
2022-08-05T01:49:24.417Z,22.22
2022-08-05T01:51:58.661Z,22.13
2022-08-05T01:54:31.207Z,22.07
2022-08-05T01:58:11.438Z,22.13
2022-08-05T01:59:53.945Z,22.27
2022-08-05T02:02:28.538Z,22.28
2022-08-05T02:05:03.111Z,22.29
2022-08-05T02:07:32.585Z,22.34
2022-08-05T02:10:02.395Z,22.35
2022-08-05T02:12:36.001Z,22.31
2022-08-05T02:15:12.377Z,22.22
2022-08-05T02:18:30.887Z,22.11
2022-08-05T02:20:41.439Z,21.98
2022-08-05T02:23:13.490Z,21.95
2022-08-05T02:25:49.761Z,21.91
2022-08-05T02:28:28.616Z,21.86
2022-08-05T02:31:04.142Z,21.79
2022-08-05T02:33:38.280Z,21.67
2022-08-05T02:36:13.483Z,21.58
2022-08-05T02:38:53.386Z,21.48
2022-08-05T02:41:28.561Z,21.38
2022-08-05T02:44:13.301Z,21.35
2022-08-05T02:46:58.880Z,21.34
2022-08-05T02:49:36.448Z,21.23
2022-08-05T02:52:08.750Z,21.23
2022-08-05T02:54:41.052Z,21.21
2022-08-05T02:58:10.618Z,21.11
2022-08-05T03:00:03.061Z,21.16
2022-08-05T03:02:36.409Z,21.28
2022-08-05T03:05:06.619Z,21.38
2022-08-05T03:08:00.881Z,21.37
2022-08-05T03:10:25.794Z,21.23
2022-08-05T03:12:55.155Z,21.07
2022-08-05T03:15:24.336Z,20.94
2022-08-05T03:17:57.536Z,20.82
2022-08-05T03:20:26.818Z,20.74
2022-08-05T03:22:57.209Z,20.64
2022-08-05T03:25:32.906Z,20.57
2022-08-05T03:28:18.528Z,20.52
2022-08-05T03:30:50.865Z,20.51
2022-08-05T03:33:20.906Z,20.53
2022-08-05T03:35:50.379Z,20.53
2022-08-05T03:38:32.862Z,20.57
2022-08-05T03:41:08.239Z,20.58
2022-08-05T03:44:08.040Z,20.59
2022-08-05T03:46:30.005Z,20.70
2022-08-05T03:49:02.267Z,20.87
2022-08-05T03:52:38.087Z,20.98
2022-08-05T03:55:50.982Z,21.12
2022-08-05T03:57:41.150Z,21.15
2022-08-05T04:00:15.928Z,21.29
2022-08-05T04:02:57.724Z,21.25
2022-08-05T04:05:33.681Z,21.37
2022-08-05T04:08:05.730Z,21.53
2022-08-05T04:10:45.359Z,21.70
2022-08-05T04:13:13.947Z,21.69
2022-08-05T04:15:52.771Z,21.78
2022-08-05T04:18:32.292Z,21.85
2022-08-05T04:21:07.989Z,21.96
2022-08-05T04:23:57.296Z,22.06
2022-08-05T04:26:32.351Z,22.16
2022-08-05T04:29:01.147Z,22.36
2022-08-05T04:31:38.481Z,22.34
2022-08-05T04:34:24.495Z,22.53
2022-08-05T04:36:58.336Z,22.67
2022-08-05T04:39:27.398Z,22.71
2022-08-05T04:41:56.275Z,22.70
2022-08-05T04:44:29.692Z,22.75
2022-08-05T04:46:59.555Z,22.73
2022-08-05T04:50:02.046Z,22.82
2022-08-05T04:52:18.610Z,22.97
2022-08-05T04:54:47.334Z,23.10
2022-08-05T04:57:17.723Z,23.22
2022-08-05T04:59:48.077Z,23.28
2022-08-05T05:02:37.197Z,23.41
2022-08-05T05:05:16.994Z,23.52
2022-08-05T05:07:56.457Z,23.66
2022-08-05T05:10:29.518Z,23.75
2022-08-05T05:12:58.075Z,23.94
2022-08-05T05:15:56.762Z,23.92
2022-08-05T05:18:31.610Z,24.12
2022-08-05T05:21:03.800Z,24.40
2022-08-05T05:24:01.705Z,24.60
2022-08-05T05:26:28.753Z,24.67
2022-08-05T05:29:02.376Z,24.79
2022-08-05T05:34:02.167Z,25.12
2022-08-05T05:36:31.692Z,25.22
2022-08-05T05:39:03.802Z,25.41
2022-08-05T05:41:40.706Z,25.51
2022-08-05T05:44:26.979Z,25.63
2022-08-05T05:46:58.577Z,25.80
2022-08-05T05:49:33.084Z,25.88
2022-08-05T05:52:01.509Z,25.90
2022-08-05T05:54:51.102Z,25.94
2022-08-05T05:57:20.366Z,26.18
2022-08-05T05:59:49.134Z,26.34
2022-08-05T06:02:27.939Z,26.21
2022-08-05T06:05:01.231Z,26.25
2022-08-05T06:07:42.024Z,26.19
2022-08-05T06:10:12.658Z,26.05
2022-08-05T06:12:42.357Z,25.90
2022-08-05T06:15:23.554Z,25.81
2022-08-05T06:17:54.717Z,25.73
2022-08-05T06:20:23.252Z,25.66
2022-08-05T06:22:51.348Z,25.62
2022-08-05T06:25:25.012Z,25.57
2022-08-05T06:28:20.976Z,25.68
2022-08-05T06:30:50.021Z,25.76
2022-08-05T06:33:19.203Z,25.74
2022-08-05T06:36:08.056Z,25.85
2022-08-05T06:38:37.151Z,25.89
2022-08-05T06:41:08.225Z,26.04
2022-08-05T06:43:57.742Z,26.09
2022-08-05T06:46:30.341Z,26.13
2022-08-05T06:48:59.922Z,26.20
2022-08-05T06:51:31.005Z,26.24
2022-08-05T06:54:00.370Z,26.44
2022-08-05T06:56:34.555Z,26.59
2022-08-05T06:59:03.806Z,26.59
2022-08-05T07:01:41.520Z,26.60
2022-08-05T07:04:11.178Z,26.64
2022-08-05T07:06:42.364Z,26.73
2022-08-05T07:09:10.475Z,26.77
2022-08-05T07:11:40.130Z,26.79
2022-08-05T07:14:29.406Z,26.86
2022-08-05T07:17:59.179Z,26.89
2022-08-05T07:20:31.195Z,26.96
2022-08-05T07:22:39.808Z,27.05
2022-08-05T07:25:23.377Z,27.04
2022-08-05T07:28:05.871Z,27.15
2022-08-05T07:30:39.707Z,27.23
2022-08-05T07:33:16.636Z,27.35
2022-08-05T07:36:04.136Z,27.41
2022-08-05T07:38:42.772Z,27.50
2022-08-05T07:42:08.709Z,27.66
2022-08-05T07:44:05.066Z,27.75
2022-08-05T07:46:34.597Z,27.80
2022-08-05T07:49:06.344Z,27.96
2022-08-05T07:51:41.158Z,28.02
2022-08-05T07:54:30.842Z,28.07
2022-08-05T07:57:17.765Z,28.19
2022-08-05T07:59:49.628Z,28.30
2022-08-05T08:02:18.433Z,28.34
2022-08-05T08:04:49.243Z,28.37
2022-08-05T08:07:21.962Z,28.48
2022-08-05T08:09:54.899Z,28.60
2022-08-05T08:12:35.430Z,28.69
2022-08-05T08:15:15.404Z,28.87
2022-08-05T08:17:49.748Z,28.96
2022-08-05T08:20:45.140Z,29.01
2022-08-05T08:24:00.488Z,29.17
2022-08-05T08:26:00.808Z,29.15
2022-08-05T08:28:36.547Z,29.24
2022-08-05T08:31:07.975Z,29.16
2022-08-05T08:33:37.983Z,29.16
2022-08-05T08:38:56.909Z,29.62
2022-08-05T08:41:51.737Z,29.66
2022-08-05T08:45:18.348Z,29.70
2022-08-05T08:47:21.841Z,29.78
2022-08-05T08:50:06.103Z,29.96
2022-08-05T08:52:51.806Z,29.99
2022-08-05T08:56:02.948Z,30.13
2022-08-05T08:58:13.106Z,30.15
2022-08-05T09:00:44.460Z,30.25
2022-08-05T09:03:16.033Z,30.36
2022-08-05T09:06:08.487Z,30.51
2022-08-05T09:08:40.196Z,30.82
2022-08-05T09:11:13.598Z,30.94
2022-08-05T09:14:10.203Z,30.94
2022-08-05T09:16:31.875Z,30.97
2022-08-05T09:19:01.703Z,31.09
2022-08-05T09:22:22.001Z,31.04
2022-08-05T09:24:24.190Z,31.04
2022-08-05T09:26:54.403Z,31.08
2022-08-05T09:29:30.713Z,31.19
2022-08-05T09:32:51.841Z,31.32
2022-08-05T09:34:59.113Z,31.50
2022-08-05T09:38:16.594Z,31.55
2022-08-05T09:40:32.583Z,31.69
2022-08-05T09:43:01.925Z,31.86
2022-08-05T09:46:06.524Z,31.76
2022-08-05T09:48:28.448Z,32.00
2022-08-05T09:51:01.429Z,31.96
2022-08-05T09:53:54.993Z,31.96
2022-08-05T09:56:26.614Z,32.14
2022-08-05T09:58:59.678Z,32.15
2022-08-05T10:01:32.372Z,32.19
2022-08-05T10:04:03.768Z,32.24
2022-08-05T10:06:34.348Z,32.25
2022-08-05T10:09:27.568Z,32.37
2022-08-05T10:11:56.955Z,32.57
2022-08-05T10:14:30.267Z,32.75
2022-08-05T10:17:37.239Z,32.80
2022-08-05T10:20:09.949Z,32.79
2022-08-05T10:22:43.086Z,32.88
2022-08-05T10:25:20.277Z,32.82
2022-08-05T10:28:09.291Z,32.71
2022-08-05T10:31:21.048Z,32.48
2022-08-05T10:33:29.644Z,32.45
2022-08-05T10:36:05.353Z,32.38
2022-08-05T10:38:36.613Z,32.48
2022-08-05T10:41:15.116Z,32.57
2022-08-05T10:43:59.271Z,32.80
2022-08-05T10:46:45.041Z,32.50
2022-08-05T10:49:16.432Z,32.40
2022-08-05T10:51:58.331Z,32.37
2022-08-05T10:54:56.205Z,32.31
2022-08-05T10:57:31.843Z,32.33
2022-08-05T11:00:20.022Z,32.35
2022-08-05T11:03:23.513Z,32.24
2022-08-05T11:06:16.134Z,32.41
2022-08-05T11:09:39.138Z,32.71
2022-08-05T11:12:50.523Z,32.50
2022-08-05T11:16:00.498Z,32.41
2022-08-05T11:18:27.466Z,32.55
2022-08-05T11:20:59.043Z,32.70
2022-08-05T11:24:02.306Z,32.94
2022-08-05T11:26:28.404Z,33.34
2022-08-05T11:29:11.778Z,33.54
2022-08-05T11:31:56.929Z,33.71
2022-08-05T11:34:38.965Z,33.90
2022-08-05T11:38:36.460Z,34.13
2022-08-05T11:40:02.859Z,34.15
2022-08-05T11:42:37.782Z,33.94
2022-08-05T11:45:14.258Z,34.11
2022-08-05T11:47:54.889Z,34.36
2022-08-05T11:50:23.611Z,34.57
2022-08-05T11:52:57.679Z,34.81
2022-08-05T11:55:32.062Z,34.77
2022-08-05T11:58:10.521Z,34.61
2022-08-05T12:00:44.138Z,34.60
2022-08-05T12:03:28.859Z,34.62
2022-08-05T12:06:03.060Z,34.48
2022-08-05T12:08:32.868Z,34.62
2022-08-05T12:11:05.730Z,34.67
2022-08-05T12:13:48.478Z,34.13
2022-08-05T12:16:26.976Z,33.64
2022-08-05T12:18:56.677Z,33.83
2022-08-05T12:21:29.929Z,34.14
2022-08-05T12:24:04.890Z,34.42
2022-08-05T12:26:36.278Z,34.50
2022-08-05T12:29:09.909Z,34.53
2022-08-05T12:31:53.448Z,34.58
2022-08-05T12:34:26.859Z,34.51
2022-08-05T12:36:57.683Z,34.41
2022-08-05T12:39:34.657Z,34.33
2022-08-05T12:42:14.292Z,34.52
2022-08-05T12:44:44.840Z,34.56
2022-08-05T12:47:17.215Z,34.51
2022-08-05T12:50:03.936Z,34.20
2022-08-05T12:52:38.655Z,34.22
2022-08-05T12:55:22.036Z,34.44
2022-08-05T12:58:51.350Z,34.61
2022-08-05T13:02:03.767Z,34.83
2022-08-05T13:03:41.354Z,34.74
2022-08-05T13:06:14.200Z,34.66
2022-08-05T13:08:50.754Z,34.71
2022-08-05T13:11:47.058Z,34.74
2022-08-05T13:14:19.503Z,34.85
2022-08-05T13:16:57.571Z,34.90
2022-08-05T13:19:51.073Z,34.88
2022-08-05T13:22:29.120Z,34.40
2022-08-05T13:25:00.961Z,34.02
2022-08-05T13:27:40.929Z,33.98
2022-08-05T13:30:35.144Z,34.03
2022-08-05T13:33:01.285Z,33.88
2022-08-05T13:35:47.449Z,34.13
2022-08-05T13:38:30.413Z,34.13
2022-08-05T13:41:02.765Z,33.99
2022-08-05T13:43:44.046Z,33.94
2022-08-05T13:46:35.723Z,33.81
2022-08-05T13:49:11.546Z,33.92
2022-08-05T13:51:46.199Z,34.06
2022-08-05T13:54:16.018Z,33.98
2022-08-05T13:56:51.397Z,34.18
2022-08-05T13:59:23.743Z,34.31
2022-08-05T14:01:56.594Z,34.45
2022-08-05T14:04:49.858Z,34.48
2022-08-05T14:07:55.400Z,34.56
2022-08-05T14:10:12.650Z,34.64
2022-08-05T14:12:42.703Z,34.68
2022-08-05T14:16:06.853Z,34.53
2022-08-05T14:18:00.822Z,34.64
2022-08-05T14:20:29.947Z,34.53
2022-08-05T14:23:00.601Z,34.57
2022-08-05T14:25:30.738Z,34.59
2022-08-05T14:27:59.080Z,34.53
2022-08-05T14:30:27.785Z,34.49
2022-08-05T14:32:57.059Z,34.40
2022-08-05T14:35:49.995Z,34.57
2022-08-05T14:38:32.426Z,34.73
2022-08-05T14:41:04.447Z,34.83
2022-08-05T14:43:59.215Z,34.82
2022-08-05T14:46:28.388Z,34.89
2022-08-05T14:48:58.874Z,34.85
2022-08-05T14:51:30.766Z,34.85
2022-08-05T14:54:26.306Z,34.67
2022-08-05T14:56:49.428Z,34.50
2022-08-05T14:59:21.181Z,34.68
2022-08-05T15:01:49.973Z,34.95
2022-08-05T15:04:20.431Z,35.18
2022-08-05T15:06:49.882Z,35.23
2022-08-05T15:09:54.039Z,35.34
2022-08-05T15:12:11.500Z,35.41
2022-08-05T15:14:49.534Z,35.34
2022-08-05T15:17:46.502Z,35.18
2022-08-05T15:20:18.605Z,35.17
2022-08-05T15:22:54.113Z,35.06
2022-08-05T15:25:40.833Z,34.92
2022-08-05T15:28:16.161Z,34.58
2022-08-05T15:30:45.703Z,34.48
2022-08-05T15:33:56.403Z,34.45
2022-08-05T15:36:04.231Z,34.28
2022-08-05T15:38:36.649Z,34.12
2022-08-05T15:41:20.860Z,33.99
2022-08-05T15:43:52.113Z,33.81
2022-08-05T15:46:24.394Z,33.76
2022-08-05T15:49:00.950Z,33.65
2022-08-05T15:52:12.494Z,33.59
2022-08-05T15:54:34.491Z,33.37
2022-08-05T15:57:07.510Z,33.28
2022-08-05T15:59:36.386Z,33.15
2022-08-05T16:02:14.257Z,33.05
2022-08-05T16:04:54.779Z,32.94
2022-08-05T16:07:23.045Z,32.81
2022-08-05T16:09:51.338Z,32.82
2022-08-05T16:12:23.811Z,32.81
2022-08-05T16:14:52.164Z,32.83
2022-08-05T16:17:20.439Z,32.75
2022-08-05T16:20:04.221Z,32.78
2022-08-05T16:22:37.065Z,32.69
2022-08-05T16:25:09.602Z,32.66
2022-08-05T16:28:00.152Z,32.63
2022-08-05T16:30:30.798Z,32.60
2022-08-05T16:33:00.996Z,32.59
2022-08-05T16:35:30.819Z,32.58
2022-08-05T16:38:03.627Z,32.57
2022-08-05T16:40:51.858Z,32.57
2022-08-05T16:43:31.639Z,32.54
2022-08-05T16:46:07.098Z,32.51
2022-08-05T16:48:49.840Z,32.45
2022-08-05T16:51:17.930Z,32.39
2022-08-05T16:54:03.913Z,32.33
2022-08-05T16:56:34.929Z,32.26
2022-08-05T16:59:09.064Z,32.18
2022-08-05T17:01:53.576Z,32.11
2022-08-05T17:04:23.850Z,32.08
2022-08-05T17:06:55.676Z,31.98
2022-08-05T17:09:28.061Z,31.92
2022-08-05T17:12:00.026Z,31.85
2022-08-05T17:14:37.495Z,31.71
2022-08-05T17:17:14.531Z,31.63
2022-08-05T17:19:46.044Z,31.54
2022-08-05T17:22:24.640Z,31.41
2022-08-05T17:24:57.042Z,31.28
2022-08-05T17:27:33.635Z,31.20
2022-08-05T17:30:12.202Z,31.14
2022-08-05T17:32:47.863Z,31.10
2022-08-05T17:35:21.010Z,31.07
2022-08-05T17:37:50.577Z,31.18
2022-08-05T17:40:22.550Z,31.07
2022-08-05T17:42:52.820Z,31.06
2022-08-05T17:45:29.476Z,31.01
2022-08-05T17:47:57.864Z,30.95
2022-08-05T17:50:28.190Z,30.84
2022-08-05T17:52:59.087Z,30.77
2022-08-05T17:55:37.316Z,30.66
2022-08-05T17:58:11.097Z,30.63
2022-08-05T18:00:47.239Z,30.58
2022-08-05T18:06:11.873Z,30.43
2022-08-05T18:08:44.423Z,30.31
2022-08-05T18:11:23.752Z,30.30
2022-08-05T18:13:53.145Z,30.28
2022-08-05T18:16:22.775Z,30.21
2022-08-05T18:18:50.999Z,30.13
2022-08-05T18:21:22.745Z,30.13
2022-08-05T18:23:54.353Z,30.05
2022-08-05T18:26:27.813Z,29.97
2022-08-05T18:28:58.798Z,29.91
2022-08-05T18:31:32.930Z,29.74
2022-08-05T18:34:05.939Z,29.74
2022-08-05T18:36:36.353Z,29.70
2022-08-05T18:39:09.803Z,29.63
2022-08-05T18:42:01.203Z,29.52
2022-08-05T18:44:35.370Z,29.41
2022-08-05T18:47:22.776Z,29.30
2022-08-05T18:50:11.966Z,29.22
2022-08-05T18:52:50.555Z,29.19
2022-08-05T18:55:20.312Z,29.09
2022-08-05T18:57:53.072Z,29.00
2022-08-05T19:00:27.158Z,28.92
2022-08-05T19:03:04.093Z,28.82
2022-08-05T19:06:13.166Z,28.76
2022-08-05T19:08:30.529Z,28.71
2022-08-05T19:11:04.571Z,28.64
2022-08-05T19:13:35.614Z,28.58
2022-08-05T19:16:04.950Z,28.54
2022-08-05T19:19:12.951Z,28.45
2022-08-05T19:21:41.396Z,28.40
2022-08-05T19:24:12.976Z,28.35
2022-08-05T19:26:54.904Z,28.27
2022-08-05T19:29:26.761Z,28.19
2022-08-05T19:32:05.384Z,28.13
2022-08-05T19:34:38.214Z,28.09
2022-08-05T19:37:06.852Z,28.06
2022-08-05T19:39:45.897Z,27.99
2022-08-05T19:42:34.962Z,27.96
2022-08-05T19:45:05.975Z,27.91
2022-08-05T19:47:34.775Z,27.87
2022-08-05T19:50:11.794Z,27.86
2022-08-05T19:52:40.953Z,27.77
2022-08-05T19:56:14.497Z,27.70
2022-08-05T19:58:10.364Z,27.83
2022-08-05T20:00:48.916Z,27.75
2022-08-05T20:03:17.096Z,27.65
2022-08-05T20:05:51.165Z,27.59
2022-08-05T20:08:20.386Z,27.54
2022-08-05T20:10:52.866Z,27.46
2022-08-05T20:13:54.582Z,27.43
2022-08-05T20:16:09.965Z,27.44
2022-08-05T20:18:39.135Z,27.37
2022-08-05T20:21:09.190Z,27.31
2022-08-05T20:23:50.278Z,27.26
2022-08-05T20:26:23.408Z,27.18
2022-08-05T20:28:55.926Z,27.14
2022-08-05T20:31:37.611Z,27.15
2022-08-05T20:34:14.431Z,27.09
2022-08-05T20:36:44.711Z,27.04
2022-08-05T20:39:13.670Z,26.99
2022-08-05T20:41:46.706Z,27.03
2022-08-05T20:44:29.098Z,26.97
2022-08-05T20:46:59.786Z,26.96
2022-08-05T20:49:28.559Z,26.96
2022-08-05T20:51:58.779Z,27.02
2022-08-05T20:54:55.087Z,27.03
2022-08-05T20:57:24.894Z,27.00
2022-08-05T21:00:20.738Z,27.07
2022-08-05T21:02:56.942Z,27.05
2022-08-05T21:05:25.712Z,27.03
2022-08-05T21:08:07.885Z,26.96
2022-08-05T21:10:36.338Z,26.97
2022-08-05T21:13:10.371Z,26.81
2022-08-05T21:15:46.116Z,26.76
2022-08-05T21:18:19.806Z,26.72
2022-08-05T21:20:53.052Z,26.72
2022-08-05T21:23:22.858Z,26.84
2022-08-05T21:25:51.020Z,26.81
2022-08-05T21:28:23.811Z,26.81
2022-08-05T21:30:52.182Z,26.74
2022-08-05T21:33:22.022Z,26.65
2022-08-05T21:35:58.472Z,26.59
2022-08-05T21:38:28.570Z,26.52
2022-08-05T21:40:57.327Z,26.48
2022-08-05T21:43:26.078Z,26.44
2022-08-05T21:45:57.854Z,26.34
2022-08-05T21:48:28.974Z,26.13
2022-08-05T21:51:00.101Z,25.96
2022-08-05T21:53:29.620Z,25.94
2022-08-05T21:56:09.944Z,25.84
2022-08-05T21:58:54.827Z,25.78
2022-08-05T22:01:26.246Z,25.87
2022-08-05T22:03:54.501Z,25.94
2022-08-05T22:06:35.301Z,25.88
2022-08-05T22:09:14.589Z,25.73
2022-08-05T22:11:46.909Z,25.78
2022-08-05T22:14:37.258Z,25.72
2022-08-05T22:17:06.635Z,25.57
2022-08-05T22:20:01.193Z,25.48
2022-08-05T22:22:28.254Z,25.38
2022-08-05T22:25:27.369Z,25.39
2022-08-05T22:28:08.639Z,25.32
2022-08-05T22:30:44.011Z,25.27
2022-08-05T22:33:57.820Z,25.23
2022-08-05T22:36:14.594Z,25.20
2022-08-05T22:38:48.620Z,25.16
2022-08-05T22:41:26.338Z,25.23
2022-08-05T22:44:08.696Z,25.18
2022-08-05T22:46:39.945Z,25.19
2022-08-05T22:49:23.139Z,25.21
2022-08-05T22:52:05.388Z,25.15
2022-08-05T22:54:37.178Z,25.15
2022-08-05T22:57:08.736Z,25.21
2022-08-05T22:59:46.114Z,25.20
2022-08-05T23:02:26.902Z,25.20
2022-08-05T23:05:02.047Z,25.16
2022-08-05T23:07:44.770Z,25.08
2022-08-05T23:10:20.174Z,25.03
2022-08-05T23:12:54.907Z,24.95
2022-08-05T23:15:26.931Z,24.89
2022-08-05T23:18:00.485Z,24.92
2022-08-05T23:20:32.524Z,24.85
2022-08-05T23:23:03.490Z,24.83
2022-08-05T23:25:51.365Z,24.83
2022-08-05T23:28:29.041Z,24.82
2022-08-05T23:31:16.100Z,24.82
2022-08-05T23:34:03.966Z,24.76
2022-08-05T23:36:39.698Z,24.69
2022-08-05T23:39:17.630Z,24.65
2022-08-05T23:41:52.020Z,24.64
2022-08-05T23:44:27.868Z,24.63
2022-08-05T23:47:00.603Z,24.65
2022-08-05T23:49:35.693Z,24.63
2022-08-05T23:52:22.258Z,24.56
2022-08-05T23:54:54.564Z,24.49
2022-08-05T23:57:24.815Z,24.57
